Wolf 59 — CGBP — position and weather

sailwx.info

Track history (hours):
 
Tides and Currents Weather Stations Pressure Air Temp Water Temp Dewpoint Dewpoint Depression Visibility Wind Speed Wind Dir Waves Ship Positions

Wolf 59

Last reported at 2018-Feb-15 19:13 UTC. Time now 2018-Feb-19 23:54 UTC.
Position N 48°21' W 123°21'.

Length 33 m; draft 2.6 m.

Type: Military. MMSI: 316011515.

Date/timePositionNaut miles runAvg speedWind from/ knotsBaromVisibWave heightAir tempDewpointWater temp
2018-Feb-15 19:13N 48°21' W 123°21'315.8
2018-Feb-15 19:00N 48°21' W 123°16'3 6.6
2018-Feb-15 18:29N 48°21' W 123°11'8 7.2
2018-Feb-15 17:19N 48°19' W 123°24'3 0.2
2018-Feb-14 21:59N 48°21' W 123°20'4 8.8
2018-Feb-14 21:29N 48°21' W 123°13'1 2.3
2018-Feb-14 21:00N 48°20' W 123°12'4 8.1
2018-Feb-14 20:30N 48°21' W 123°18'5 8.8
2018-Feb-14 19:57N 48°21' W 123°10'3 7.8
2018-Feb-14 19:31N 48°23' W 123°07'3 6.1
2018-Feb-14 19:01N 48°21' W 123°10'11 4.6
2018-Feb-14 16:38N 48°24' W 123°26'5 0.3
2018-Feb-13 23:16N 48°21' W 123°20'410.8
2018-Feb-13 22:56N 48°21' W 123°14'5 8.8
2018-Feb-13 22:22N 48°22' W 123°07'1 3.6
2018-Feb-13 22:00N 48°22' W 123°09'6 7.6
2018-Feb-13 21:14N 48°18' W 123°16'2 9.0
2018-Feb-13 21:00N 48°20' W 123°15'4 7.8
2018-Feb-13 20:29N 48°22' W 123°09'1 2.0
2018-Feb-13 19:59N 48°21' W 123°10'4 7.1
2018-Feb-13 19:28N 48°20' W 123°16'4 8.9
2018-Feb-13 19:00N 48°23' W 123°11'2 4.3
2018-Feb-13 18:28N 48°20' W 123°11'4 7.8
2018-Feb-13 17:57N 48°20' W 123°17'6 7.9
2018-Feb-13 17:14N 48°21' W 123°25'6 0.3
2018-Feb-13 00:27N 48°26' W 123°27'4 7.7
2018-Feb-12 23:57N 48°22' W 123°27'613.5
2018-Feb-12 23:30N 48°21' W 123°18'510.3
2018-Feb-12 23:01N 48°21' W 123°10'0 0.9
2018-Feb-12 22:31N 48°21' W 123°10'5 9.8
2018-Feb-12 22:01N 48°20' W 123°17'2 4.8
2018-Feb-12 21:31N 48°21' W 123°13'4 8.1
2018-Feb-12 21:00N 48°21' W 123°07'3 6.5
2018-Feb-12 20:31N 48°21' W 123°12'4 8.9
2018-Feb-12 20:01N 48°21' W 123°19'5 9.7
2018-Feb-12 19:30N 48°21' W 123°11'1 2.1
2018-Feb-12 19:00N 48°21' W 123°13'4 8.6
2018-Feb-12 18:30N 48°19' W 123°18'3 6.7
2018-Feb-12 18:00N 48°20' W 123°23'4 8.1
2018-Feb-12 17:30N 48°24' W 123°26'  
2018-Feb-07 23:13N 48°20' W 123°19'311.1
2018-Feb-07 22:58N 48°21' W 123°15'0 0.8
2018-Feb-07 22:30N 48°22' W 123°15'3 4.7
2018-Feb-07 21:58N 48°19' W 123°17'2 4.2
2018-Feb-07 21:29N 48°21' W 123°19'3 0.1
2018-Feb-06 23:40N 48°21' W 123°15'2 4.7
2018-Feb-06 23:10N 48°22' W 123°11'5 4.9
2018-Feb-06 22:10N 48°21' W 123°18'6 8.6
2018-Feb-06 21:26N 48°22' W 123°09'2 4.7
2018-Feb-06 21:00N 48°21' W 123°11'4 6.8
2018-Feb-06 20:28N 48°21' W 123°17'1 1.4
2018-Feb-06 19:24N 48°20' W 123°15'  
Track history (hours):
 
Tides and Currents Weather Stations Pressure Air Temp Water Temp Dewpoint Dewpoint Depression Visibility Wind Speed Wind Dir Waves Ship Positions

Wolf 59

Last reported at 2018-Feb-15 19:13 UTC. Time now 2018-Feb-19 23:54 UTC.
Position N 48°21' W 123°21'.

Length 33 m; draft 2.6 m.

Type: Military. MMSI: 316011515.

Date/timePositionNaut miles runAvg speedWind from/ knotsBaromVisibWave heightAir tempDewpointWater temp
2018-Feb-15 19:13N 48°21' W 123°21'315.8
2018-Feb-15 19:00N 48°21' W 123°16'3 6.6
2018-Feb-15 18:29N 48°21' W 123°11'8 7.2
2018-Feb-15 17:19N 48°19' W 123°24'3 0.2
2018-Feb-14 21:59N 48°21' W 123°20'4 8.8
2018-Feb-14 21:29N 48°21' W 123°13'1 2.3
2018-Feb-14 21:00N 48°20' W 123°12'4 8.1
2018-Feb-14 20:30N 48°21' W 123°18'5 8.8
2018-Feb-14 19:57N 48°21' W 123°10'3 7.8
2018-Feb-14 19:31N 48°23' W 123°07'3 6.1
2018-Feb-14 19:01N 48°21' W 123°10'11 4.6
2018-Feb-14 16:38N 48°24' W 123°26'5 0.3
2018-Feb-13 23:16N 48°21' W 123°20'410.8
2018-Feb-13 22:56N 48°21' W 123°14'5 8.8
2018-Feb-13 22:22N 48°22' W 123°07'1 3.6
2018-Feb-13 22:00N 48°22' W 123°09'6 7.6
2018-Feb-13 21:14N 48°18' W 123°16'2 9.0
2018-Feb-13 21:00N 48°20' W 123°15'4 7.8
2018-Feb-13 20:29N 48°22' W 123°09'1 2.0
2018-Feb-13 19:59N 48°21' W 123°10'4 7.1
2018-Feb-13 19:28N 48°20' W 123°16'4 8.9
2018-Feb-13 19:00N 48°23' W 123°11'2 4.3
2018-Feb-13 18:28N 48°20' W 123°11'4 7.8
2018-Feb-13 17:57N 48°20' W 123°17'6 7.9
2018-Feb-13 17:14N 48°21' W 123°25'6 0.3
2018-Feb-13 00:27N 48°26' W 123°27'4 7.7
2018-Feb-12 23:57N 48°22' W 123°27'613.5
2018-Feb-12 23:30N 48°21' W 123°18'510.3
2018-Feb-12 23:01N 48°21' W 123°10'0 0.9
2018-Feb-12 22:31N 48°21' W 123°10'5 9.8
2018-Feb-12 22:01N 48°20' W 123°17'2 4.8
2018-Feb-12 21:31N 48°21' W 123°13'4 8.1
2018-Feb-12 21:00N 48°21' W 123°07'3 6.5
2018-Feb-12 20:31N 48°21' W 123°12'4 8.9
2018-Feb-12 20:01N 48°21' W 123°19'5 9.7
2018-Feb-12 19:30N 48°21' W 123°11'1 2.1
2018-Feb-12 19:00N 48°21' W 123°13'4 8.6
2018-Feb-12 18:30N 48°19' W 123°18'3 6.7
2018-Feb-12 18:00N 48°20' W 123°23'4 8.1
2018-Feb-12 17:30N 48°24' W 123°26'  
2018-Feb-07 23:13N 48°20' W 123°19'311.1
2018-Feb-07 22:58N 48°21' W 123°15'0 0.8
2018-Feb-07 22:30N 48°22' W 123°15'3 4.7
2018-Feb-07 21:58N 48°19' W 123°17'2 4.2
2018-Feb-07 21:29N 48°21' W 123°19'3 0.1
2018-Feb-06 23:40N 48°21' W 123°15'2 4.7
2018-Feb-06 23:10N 48°22' W 123°11'5 4.9
2018-Feb-06 22:10N 48°21' W 123°18'6 8.6
2018-Feb-06 21:26N 48°22' W 123°09'2 4.7
2018-Feb-06 21:00N 48°21' W 123°11'4 6.8
2018-Feb-06 20:28N 48°21' W 123°17'1 1.4
2018-Feb-06 19:24N 48°20' W 123°15'  

Dump ship's entire track history